Pagrindinis puslapis
METAR-TAF:

METAR-TAF

Oro uostai :

Kristiansandas, Norvegija

platuma: 58-12N, ilguma: 008-05E, Aukštis: 1 m

Dabartinis oras

Ataskaita buvo paskelbta 32 minutes, ne 09:20 UTC
Vėjas 9 kt iš Vakarų/Pietvakarių
Temperatūra 5°C
Drėgmė 81%
Slėgis 978 hPa
Matomumas 10 km arba daugiau
Mažai debesys ne aukštis 2500 ft

METAR: ENCN 090920Z 24009KT 9999 FEW025 05/02 Q0978

Laikas: 10:52 (09:52 UTC)

Prognozė

Ataskaita buvo paskelbta 1 valandą ir 52 minutes, ne 08:00 UTC
Prognozė galioja nuo 09 metu 09 UTC su 09 metu 18 UTC
Vėjas 10 kt iš Pietvakarių
Matomumas 10 km arba daugiau
nėra debesų žemiau 1500 m ir nėra kamuolinių lietaus debesų
Tapsmas
nuo 09 metu 09 UTC su 09 metu 11 UTC
Vėjas 20 kt iš Šiaurės/Šiaurės Vakarų su gūsio iki 30 kt
Tapsmas
nuo 09 metu 14 UTC su 09 metu 16 UTC
Vėjas 10 kt iš Šiaurės/Šiaurės Vakarų

TAF: ENCN 090800Z 0909/0918 23010KT CAVOK BECMG 0909/0911 33020G30KT BECMG 0914/0916 33010KT

Orai ataskaitas ir orų prognozės (METAR, TAF).

turimą stotys yra geltonos ir raudonos taškus žemėlapyje.

Perkelti pele per norėdami pamatyti stoties vardą.

Tada spustelėkite, norėdami matyti oro stebėjimo ir prognozės.

Norėdami pakeisti žemėlapį: spustelėkite ant žalios mygtukų su juodo kryžiaus žemyn,; žalią mygtuką su brūkšneliu, jei norite nutolinti; arba žalių rodyklių gretimoms žemėlapius.


METAR-TAF: